createdAt,value
2018-06-22T00:00:31.077Z,9.97
2018-06-22T00:02:59.973Z,9.96
2018-06-22T00:05:28.941Z,10.07
2018-06-22T00:07:57.808Z,10.13
2018-06-22T00:10:26.672Z,10.02
2018-06-22T00:12:55.889Z,10.03
2018-06-22T00:15:24.796Z,10.06
2018-06-22T00:17:53.694Z,9.94
2018-06-22T00:20:22.569Z,9.96
2018-06-22T00:22:51.471Z,9.89
2018-06-22T00:25:20.359Z,9.90
2018-06-22T00:27:49.300Z,9.89
2018-06-22T00:30:18.181Z,9.83
2018-06-22T00:32:47.124Z,9.75
2018-06-22T00:35:16.080Z,9.71
2018-06-22T00:37:44.939Z,9.71
2018-06-22T00:40:13.816Z,9.66
2018-06-22T00:42:42.757Z,9.65
2018-06-22T00:45:11.683Z,9.73
2018-06-22T00:47:41.302Z,9.73
2018-06-22T00:50:10.202Z,9.65
2018-06-22T00:52:39.130Z,9.75
2018-06-22T00:55:08.026Z,9.74
2018-06-22T00:57:36.893Z,9.82
2018-06-22T01:00:06.059Z,9.91
2018-06-22T01:02:34.947Z,9.90
2018-06-22T01:05:03.818Z,9.93
2018-06-22T01:07:32.687Z,9.89
2018-06-22T01:10:01.555Z,9.79
2018-06-22T01:12:30.427Z,9.81
2018-06-22T01:14:59.329Z,9.78
2018-06-22T01:17:28.612Z,9.86
2018-06-22T01:19:57.452Z,9.79
2018-06-22T01:22:26.976Z,9.73
2018-06-22T01:24:55.801Z,9.72
2018-06-22T01:27:24.738Z,9.77
2018-06-22T01:29:53.630Z,9.82
2018-06-22T01:32:22.470Z,9.91
2018-06-22T01:34:51.372Z,9.88
2018-06-22T01:37:20.251Z,9.91
2018-06-22T01:39:49.990Z,9.86
2018-06-22T01:42:18.845Z,9.80
2018-06-22T01:44:47.678Z,9.77
2018-06-22T01:47:16.561Z,9.83
2018-06-22T01:49:45.483Z,9.86
2018-06-22T01:52:14.340Z,9.85
2018-06-22T01:54:43.183Z,9.86
2018-06-22T01:57:12.013Z,9.84
2018-06-22T01:59:40.908Z,9.78
2018-06-22T02:02:09.760Z,9.79
2018-06-22T02:04:38.609Z,9.77
2018-06-22T02:07:07.577Z,9.75
2018-06-22T02:09:36.332Z,9.79
2018-06-22T02:12:05.193Z,9.79
2018-06-22T02:14:34.118Z,9.78
2018-06-22T02:17:02.989Z,9.74
2018-06-22T02:19:31.920Z,9.72
2018-06-22T02:22:00.757Z,9.80
2018-06-22T02:24:29.603Z,9.74
2018-06-22T02:26:58.457Z,9.76
2018-06-22T02:29:27.318Z,9.77
2018-06-22T02:31:56.154Z,9.75
2018-06-22T02:34:25.130Z,9.76
2018-06-22T02:36:53.997Z,9.78
2018-06-22T02:39:23.316Z,9.68
2018-06-22T02:41:52.189Z,9.66
2018-06-22T02:44:21.103Z,9.68
2018-06-22T02:46:50.020Z,9.58
2018-06-22T02:49:18.895Z,9.55
2018-06-22T02:51:47.799Z,9.52
2018-06-22T02:54:16.657Z,9.58
2018-06-22T02:56:45.503Z,9.44
2018-06-22T02:59:14.366Z,9.51
2018-06-22T03:01:43.281Z,9.48
2018-06-22T03:04:12.159Z,9.43
2018-06-22T03:06:41.045Z,9.42
2018-06-22T03:09:10.108Z,9.49
2018-06-22T03:11:38.970Z,9.48
2018-06-22T03:14:07.892Z,9.41
2018-06-22T03:16:36.752Z,9.45
2018-06-22T03:19:05.649Z,9.46
2018-06-22T03:21:34.510Z,9.50
2018-06-22T03:24:03.380Z,9.44
2018-06-22T03:26:32.237Z,9.40
2018-06-22T03:29:01.077Z,9.47
2018-06-22T03:31:35.995Z,9.42
2018-06-22T03:34:05.597Z,9.38
2018-06-22T03:36:34.509Z,9.33
2018-06-22T03:39:03.546Z,9.41
2018-06-22T03:41:32.430Z,9.40
2018-06-22T03:44:01.220Z,9.37
2018-06-22T03:46:30.127Z,9.41
2018-06-22T03:48:59.040Z,9.45
2018-06-22T03:51:27.922Z,9.47
2018-06-22T03:53:56.833Z,9.41
2018-06-22T03:56:25.725Z,9.41
2018-06-22T03:58:54.631Z,9.44
2018-06-22T04:01:23.453Z,9.50
2018-06-22T04:03:52.313Z,9.58
2018-06-22T04:06:21.185Z,9.62
2018-06-22T04:08:50.004Z,9.61
2018-06-22T04:11:18.949Z,9.62
2018-06-22T04:13:47.875Z,9.75
2018-06-22T04:16:16.734Z,9.76
2018-06-22T04:18:45.641Z,9.83
2018-06-22T04:21:14.541Z,10.01
2018-06-22T04:23:43.379Z,10.00
2018-06-22T04:26:12.229Z,10.00
2018-06-22T04:28:41.064Z,10.09
2018-06-22T04:31:10.357Z,10.25
2018-06-22T04:33:39.220Z,10.32
2018-06-22T04:36:08.115Z,10.39
2018-06-22T04:38:37.101Z,10.55
2018-06-22T04:41:06.425Z,10.58
2018-06-22T04:43:35.300Z,10.59
2018-06-22T04:46:04.165Z,10.48
2018-06-22T04:48:33.032Z,10.63
2018-06-22T04:51:01.864Z,10.73
2018-06-22T04:53:30.659Z,11.02
2018-06-22T04:55:59.512Z,11.04
2018-06-22T04:58:28.504Z,11.47
2018-06-22T05:00:57.374Z,11.84
2018-06-22T05:03:26.220Z,12.85
2018-06-22T05:05:55.072Z,13.83
2018-06-22T05:08:23.929Z,14.66
2018-06-22T05:10:52.830Z,14.79
2018-06-22T05:13:21.729Z,14.68
2018-06-22T05:15:50.606Z,16.24
2018-06-22T05:18:20.181Z,17.85
2018-06-22T05:20:49.088Z,18.23
2018-06-22T05:23:17.967Z,18.64
2018-06-22T05:25:46.849Z,18.59
2018-06-22T05:43:21.082Z,18.49
2018-06-22T05:45:49.969Z,14.69
2018-06-22T05:48:18.829Z,13.92
2018-06-22T05:50:47.770Z,13.23
2018-06-22T05:53:16.624Z,12.72
2018-06-22T05:55:45.489Z,12.71
2018-06-22T05:58:14.909Z,12.42
2018-06-22T06:00:43.810Z,12.51
2018-06-22T06:03:12.665Z,12.99
2018-06-22T06:05:41.631Z,13.79
2018-06-22T06:08:10.581Z,13.86
2018-06-22T06:10:39.438Z,13.45
2018-06-22T06:13:08.319Z,13.22
2018-06-22T06:15:37.350Z,13.02
2018-06-22T06:18:06.200Z,13.07
2018-06-22T06:20:36.190Z,14.82
2018-06-22T06:23:05.077Z,16.23
2018-06-22T06:25:33.927Z,17.05
2018-06-22T06:28:02.832Z,17.82
2018-06-22T06:30:33.389Z,17.12
2018-06-22T06:33:02.293Z,17.51
2018-06-22T06:35:31.148Z,17.49
2018-06-22T06:38:00.097Z,16.38
2018-06-22T06:40:29.010Z,16.93
2018-06-22T06:42:57.881Z,16.78
2018-06-22T06:45:26.847Z,15.45
2018-06-22T06:47:55.775Z,14.26
2018-06-22T06:50:24.758Z,13.40
2018-06-22T06:52:54.466Z,12.84
2018-06-22T06:55:24.983Z,12.49
2018-06-22T06:57:54.456Z,12.35
2018-06-22T07:00:25.400Z,12.33
2018-06-22T07:02:54.380Z,12.42
2018-06-22T07:05:23.396Z,12.43
2018-06-22T07:07:52.766Z,12.69
2018-06-22T07:10:23.358Z,12.52
2018-06-22T07:12:52.316Z,12.71
2018-06-22T07:15:21.458Z,12.80
2018-06-22T07:17:51.049Z,12.89
2018-06-22T07:20:20.813Z,12.90
2018-06-22T07:22:49.738Z,13.14
2018-06-22T07:25:20.700Z,13.80
2018-06-22T07:27:56.345Z,15.64
2018-06-22T07:30:28.105Z,16.39
2018-06-22T07:32:57.324Z,16.09
2018-06-22T07:35:26.242Z,15.89
2018-06-22T07:37:55.968Z,16.70
2018-06-22T07:40:24.982Z,17.90
2018-06-22T07:42:54.053Z,17.05
2018-06-22T07:45:22.955Z,16.89
2018-06-22T07:47:52.052Z,16.62
2018-06-22T07:50:21.050Z,15.75
2018-06-22T07:52:50.002Z,15.06
2018-06-22T07:55:19.957Z,14.52
2018-06-22T07:57:49.743Z,14.20
2018-06-22T08:00:19.658Z,14.01
2018-06-22T08:02:48.693Z,14.00
2018-06-22T08:05:17.841Z,14.93
2018-06-22T08:07:46.821Z,16.40
2018-06-22T08:10:15.797Z,16.86
2018-06-22T08:12:45.078Z,16.46
2018-06-22T08:15:14.117Z,15.48
2018-06-22T08:17:43.148Z,14.83
2018-06-22T08:20:12.239Z,15.05
2018-06-22T08:22:41.256Z,15.52
2018-06-22T08:25:10.188Z,16.48
2018-06-22T08:27:39.115Z,16.56
2018-06-22T08:30:08.529Z,15.87
2018-06-22T08:32:37.540Z,15.03
2018-06-22T08:35:06.643Z,15.10
2018-06-22T08:37:35.574Z,15.46
2018-06-22T08:40:04.559Z,16.68
2018-06-22T08:42:33.498Z,17.70
2018-06-22T08:45:02.470Z,18.01
2018-06-22T08:47:36.014Z,18.20
2018-06-22T08:50:05.105Z,17.94
2018-06-22T08:52:34.143Z,16.44
2018-06-22T08:55:03.206Z,15.66
2018-06-22T08:57:32.312Z,14.80
2018-06-22T09:00:01.308Z,14.27
2018-06-22T09:02:30.300Z,14.18
2018-06-22T09:04:59.421Z,14.23
2018-06-22T09:07:28.413Z,14.34
2018-06-22T09:09:57.404Z,14.66
2018-06-22T09:12:26.371Z,14.79
2018-06-22T09:14:55.379Z,16.53
2018-06-22T09:17:24.373Z,17.42
2018-06-22T09:19:53.522Z,17.77
2018-06-22T09:22:22.515Z,17.88
2018-06-22T09:24:51.449Z,18.57
2018-06-22T09:27:20.388Z,19.00
2018-06-22T09:29:49.597Z,18.99
2018-06-22T09:32:18.864Z,18.91
2018-06-22T09:34:47.906Z,18.33
2018-06-22T09:37:17.194Z,17.41
2018-06-22T09:39:46.188Z,17.19
2018-06-22T09:42:15.165Z,17.34
2018-06-22T09:44:44.145Z,17.80
2018-06-22T09:47:13.236Z,17.78
2018-06-22T09:49:42.192Z,17.68
2018-06-22T09:52:11.196Z,17.50
2018-06-22T09:54:40.150Z,18.02
2018-06-22T09:57:09.173Z,18.22
2018-06-22T09:59:38.178Z,17.57
2018-06-22T10:02:07.066Z,17.31
2018-06-22T10:04:35.949Z,17.76
2018-06-22T10:07:05.052Z,17.77
2018-06-22T10:09:34.515Z,18.13
2018-06-22T10:12:03.742Z,18.25
2018-06-22T10:14:32.878Z,18.29
2018-06-22T10:17:01.940Z,18.42
2018-06-22T10:19:31.030Z,18.56
2018-06-22T10:22:00.288Z,18.57
2018-06-22T10:24:29.434Z,18.69
2018-06-22T10:26:58.613Z,18.65
2018-06-22T10:29:27.611Z,18.29
2018-06-22T10:31:56.469Z,18.36
2018-06-22T10:34:25.741Z,18.65
2018-06-22T10:36:54.944Z,18.67
2018-06-22T10:39:24.059Z,18.55
2018-06-22T10:42:06.669Z,18.17
2018-06-22T10:44:35.501Z,18.50
2018-06-22T10:47:04.449Z,18.80
2018-06-22T10:49:33.281Z,18.91
2018-06-22T10:52:02.175Z,19.09
2018-06-22T10:54:31.215Z,19.61
2018-06-22T10:57:00.260Z,19.36
2018-06-22T10:59:29.338Z,18.71
2018-06-22T11:01:58.457Z,18.37
2018-06-22T11:04:27.369Z,18.07
2018-06-22T11:06:56.257Z,18.05
2018-06-22T11:09:25.237Z,17.94
2018-06-22T11:11:54.309Z,18.16
2018-06-22T11:14:23.288Z,17.99
2018-06-22T11:16:52.264Z,18.01
2018-06-22T11:19:21.179Z,18.21
2018-06-22T11:21:50.168Z,18.41
2018-06-22T11:24:19.190Z,18.50
2018-06-22T11:26:48.259Z,18.68
2018-06-22T11:29:17.189Z,18.71
2018-06-22T11:31:46.195Z,18.81
2018-06-22T11:34:15.172Z,18.25
2018-06-22T11:36:44.052Z,18.10
2018-06-22T11:39:12.966Z,18.23
2018-06-22T11:41:42.381Z,18.40
2018-06-22T11:44:12.158Z,18.74
2018-06-22T11:46:41.303Z,18.80
2018-06-22T11:49:10.206Z,19.08
2018-06-22T11:51:39.334Z,19.39
2018-06-22T11:54:08.255Z,19.37
2018-06-22T11:56:38.125Z,19.37
2018-06-22T11:59:07.273Z,19.26
2018-06-22T12:01:36.567Z,19.00
2018-06-22T12:04:05.711Z,19.14
2018-06-22T12:06:35.477Z,19.24
2018-06-22T12:09:06.450Z,18.91
2018-06-22T12:11:35.360Z,18.68
2018-06-22T12:14:06.168Z,18.59
2018-06-22T12:16:36.504Z,18.92
2018-06-22T12:19:05.554Z,18.84
2018-06-22T12:21:34.473Z,19.15
2018-06-22T12:24:03.882Z,19.25
2018-06-22T12:26:32.833Z,19.38
2018-06-22T12:29:01.753Z,19.10
2018-06-22T12:31:30.592Z,18.52
2018-06-22T12:34:03.441Z,18.27
2018-06-22T12:36:32.274Z,18.21
2018-06-22T12:39:01.541Z,18.32
2018-06-22T12:41:30.662Z,18.68
2018-06-22T12:43:59.590Z,18.60
2018-06-22T12:46:35.260Z,18.25
2018-06-22T12:49:05.010Z,17.90
2018-06-22T12:51:33.963Z,18.14
2018-06-22T12:54:03.088Z,18.41
2018-06-22T12:56:31.967Z,18.46
2018-06-22T12:59:01.056Z,18.35
2018-06-22T13:01:30.038Z,18.44
2018-06-22T13:03:59.182Z,18.40
2018-06-22T13:06:30.474Z,18.15
2018-06-22T13:08:59.452Z,17.81
2018-06-22T13:11:30.709Z,17.80
2018-06-22T13:13:59.640Z,17.69
2018-06-22T13:16:28.606Z,17.52
2018-06-22T13:18:57.504Z,17.56
2018-06-22T13:21:26.451Z,17.81
2018-06-22T13:23:55.434Z,18.07
2018-06-22T13:26:24.436Z,18.35
2018-06-22T13:28:53.421Z,18.51
2018-06-22T13:31:22.327Z,18.49
2018-06-22T13:33:51.265Z,18.42
2018-06-22T13:36:20.350Z,18.40
2018-06-22T13:38:49.405Z,18.59
2018-06-22T13:41:18.408Z,18.60
2018-06-22T13:43:47.287Z,18.56
2018-06-22T13:46:16.122Z,18.60
2018-06-22T13:48:46.076Z,18.48
2018-06-22T13:51:18.178Z,18.26
2018-06-22T13:53:47.051Z,18.17
2018-06-22T13:56:15.935Z,17.97
2018-06-22T13:58:44.850Z,18.14
2018-06-22T14:01:13.917Z,18.61
2018-06-22T14:03:48.009Z,18.81
2018-06-22T14:06:22.123Z,18.71
2018-06-22T14:08:51.120Z,18.88
2018-06-22T14:11:20.073Z,18.52
2018-06-22T14:13:48.986Z,18.07
2018-06-22T14:16:17.966Z,17.61
2018-06-22T14:18:46.833Z,17.51
2018-06-22T14:21:15.732Z,17.76
2018-06-22T14:23:44.615Z,17.86
2018-06-22T14:26:17.893Z,18.05
2018-06-22T14:28:46.928Z,17.83
2018-06-22T14:31:16.168Z,17.65
2018-06-22T14:33:57.686Z,17.88
2018-06-22T14:36:40.134Z,18.39
2018-06-22T14:39:09.937Z,18.51
2018-06-22T14:41:43.617Z,18.29
2018-06-22T14:44:12.500Z,18.19
2018-06-22T14:46:41.479Z,17.91
2018-06-22T14:49:10.394Z,17.72
2018-06-22T14:51:43.338Z,17.77
2018-06-22T14:54:20.318Z,18.17
2018-06-22T14:56:56.601Z,18.55
2018-06-22T14:59:32.766Z,18.27
2018-06-22T15:02:09.434Z,17.59
2018-06-22T15:04:44.897Z,17.03
2018-06-22T15:07:22.440Z,16.98
2018-06-22T15:09:53.732Z,17.26
2018-06-22T15:12:22.776Z,17.20
2018-06-22T15:14:59.164Z,17.38
2018-06-22T15:17:37.794Z,17.22
2018-06-22T15:20:09.726Z,17.10
2018-06-22T15:22:38.692Z,16.85
2018-06-22T15:25:09.859Z,16.73
2018-06-22T15:27:38.758Z,16.49
2018-06-22T15:30:11.856Z,16.48
2018-06-22T15:32:44.235Z,16.71
2018-06-22T15:35:19.687Z,16.70
2018-06-22T15:37:53.944Z,16.69
2018-06-22T15:41:27.302Z,16.64
2018-06-22T15:44:01.530Z,16.51
2018-06-22T15:46:39.587Z,16.51
2018-06-22T15:49:14.069Z,16.53
2018-06-22T15:51:49.770Z,16.43
2018-06-22T15:54:27.392Z,16.10
2018-06-22T15:57:01.319Z,16.00
2018-06-22T15:59:30.518Z,15.86
2018-06-22T16:02:04.077Z,15.50
2018-06-22T16:04:32.955Z,15.36
2018-06-22T16:07:01.913Z,15.19
2018-06-22T16:09:31.050Z,15.14
2018-06-22T16:12:05.150Z,15.25
2018-06-22T16:14:39.139Z,15.32
2018-06-22T16:17:13.243Z,15.53
2018-06-22T16:20:50.245Z,15.54
2018-06-22T16:23:24.310Z,15.51
2018-06-22T16:25:58.357Z,15.42
2018-06-22T16:28:27.469Z,15.48
2018-06-22T16:30:56.342Z,15.64
2018-06-22T16:33:25.202Z,15.61
2018-06-22T16:35:54.070Z,15.66
2018-06-22T16:38:22.961Z,15.72
2018-06-22T16:40:51.882Z,15.83
2018-06-22T16:43:20.814Z,15.75
2018-06-22T16:45:49.714Z,15.64
2018-06-22T16:48:19.311Z,15.52
2018-06-22T16:50:48.230Z,15.45
2018-06-22T16:53:17.721Z,15.37
2018-06-22T16:55:46.586Z,15.17
2018-06-22T16:58:20.702Z,15.12
2018-06-22T17:00:51.109Z,15.02
2018-06-22T17:03:20.656Z,15.09
2018-06-22T17:05:49.636Z,15.07
2018-06-22T17:08:23.950Z,14.96
2018-06-22T17:12:00.061Z,15.01
2018-06-22T17:14:34.006Z,14.85
2018-06-22T17:17:08.092Z,14.81
2018-06-22T17:19:36.975Z,14.77
2018-06-22T17:22:05.869Z,14.57
2018-06-22T17:24:34.761Z,14.55
2018-06-22T17:27:03.689Z,14.47
2018-06-22T17:29:32.640Z,14.42
2018-06-22T17:32:01.553Z,14.35
2018-06-22T17:34:30.501Z,14.49
2018-06-22T17:36:59.398Z,14.45
2018-06-22T17:39:28.316Z,14.39
2018-06-22T17:41:57.138Z,14.43
2018-06-22T17:44:26.069Z,14.40
2018-06-22T17:46:55.015Z,14.43
2018-06-22T17:49:23.891Z,14.45
2018-06-22T17:51:52.762Z,14.55
2018-06-22T17:54:21.674Z,14.60
2018-06-22T17:56:50.649Z,14.62
2018-06-22T17:59:24.661Z,14.51
2018-06-22T18:01:58.678Z,14.49
2018-06-22T18:04:32.761Z,14.52
2018-06-22T18:07:07.505Z,14.58
2018-06-22T18:09:41.718Z,14.56
2018-06-22T18:12:15.835Z,14.49
2018-06-22T18:14:44.780Z,14.40
2018-06-22T18:17:14.046Z,14.32
2018-06-22T18:19:42.972Z,14.27
2018-06-22T18:22:11.916Z,14.26
2018-06-22T18:24:40.818Z,14.30
2018-06-22T18:27:09.698Z,14.34
2018-06-22T18:29:38.519Z,14.41
2018-06-22T18:32:07.484Z,14.33
2018-06-22T18:34:39.402Z,14.29
2018-06-22T18:37:08.305Z,14.27
2018-06-22T18:39:37.235Z,14.22
2018-06-22T18:42:06.116Z,14.14
2018-06-22T18:44:35.037Z,14.17
2018-06-22T18:47:04.092Z,14.18
2018-06-22T18:49:32.936Z,14.08
2018-06-22T18:52:06.851Z,14.09
2018-06-22T18:54:40.864Z,14.06
2018-06-22T18:57:14.768Z,14.05
2018-06-22T18:59:47.851Z,13.91
2018-06-22T19:02:22.046Z,13.84
2018-06-22T19:04:51.074Z,13.80
2018-06-22T19:07:20.001Z,13.53
2018-06-22T19:09:49.250Z,13.58
2018-06-22T19:12:18.504Z,13.62
2018-06-22T19:14:47.561Z,13.59
2018-06-22T19:17:16.622Z,13.59
2018-06-22T19:19:45.728Z,13.56
2018-06-22T19:22:14.931Z,13.49
2018-06-22T19:24:45.036Z,13.41
2018-06-22T19:27:15.412Z,13.32
2018-06-22T19:29:49.151Z,13.35
2018-06-22T19:32:18.213Z,13.37
2018-06-22T19:34:52.490Z,13.34
2018-06-22T19:37:22.494Z,13.31
2018-06-22T19:39:51.761Z,13.29
2018-06-22T19:42:20.767Z,13.08
2018-06-22T19:44:54.913Z,13.15
2018-06-22T19:47:28.989Z,13.00
2018-06-22T19:50:03.171Z,12.96
2018-06-22T19:52:39.133Z,12.99
2018-06-22T19:55:11.124Z,12.95
2018-06-22T19:57:40.044Z,12.94
2018-06-22T20:00:17.793Z,12.89
2018-06-22T20:02:57.222Z,12.88
2018-06-22T20:05:26.958Z,12.84
2018-06-22T20:07:56.029Z,12.68
2018-06-22T20:10:25.083Z,12.65
2018-06-22T20:12:55.524Z,12.72
2018-06-22T20:15:34.758Z,12.68
2018-06-22T20:18:15.018Z,12.65
2018-06-22T20:20:52.279Z,12.56
2018-06-22T20:23:34.481Z,12.61
2018-06-22T20:26:03.765Z,12.54
2018-06-22T20:28:33.104Z,12.53
2018-06-22T20:31:02.164Z,12.59
2018-06-22T20:33:31.418Z,12.67
2018-06-22T20:36:05.588Z,12.62
2018-06-22T20:38:40.007Z,12.59
2018-06-22T20:41:14.847Z,12.58
2018-06-22T20:43:49.157Z,12.55
2018-06-22T20:46:23.764Z,12.51
2018-06-22T20:48:57.938Z,12.48
2018-06-22T20:51:31.101Z,12.41
2018-06-22T20:54:02.625Z,12.47
2018-06-22T20:56:31.570Z,12.52
2018-06-22T20:59:00.632Z,12.50
2018-06-22T21:01:29.647Z,12.53
2018-06-22T21:03:58.579Z,12.52
2018-06-22T21:06:27.537Z,12.55
2018-06-22T21:08:57.126Z,12.57
2018-06-22T21:11:26.132Z,12.52
2018-06-22T21:13:55.687Z,12.49
2018-06-22T21:16:24.541Z,12.47
2018-06-22T21:18:53.764Z,12.40
2018-06-22T21:21:27.629Z,12.34
2018-06-22T21:23:56.542Z,12.36
2018-06-22T21:26:25.441Z,12.34
2018-06-22T21:30:02.311Z,12.32
2018-06-22T21:32:37.030Z,12.36
2018-06-22T21:35:11.247Z,12.40
2018-06-22T21:37:45.539Z,12.40
2018-06-22T21:40:14.649Z,12.40
2018-06-22T21:42:43.757Z,12.44
2018-06-22T21:45:13.282Z,12.46
2018-06-22T21:47:42.287Z,12.45
2018-06-22T21:50:12.818Z,12.44
2018-06-22T21:52:41.747Z,12.38
2018-06-22T21:55:11.628Z,12.36
2018-06-22T21:57:40.590Z,12.29
2018-06-22T22:00:11.889Z,12.25
2018-06-22T22:02:40.860Z,12.21
2018-06-22T22:05:10.133Z,12.22
2018-06-22T22:07:39.151Z,12.21
2018-06-22T22:10:08.108Z,12.24
2018-06-22T22:12:45.007Z,12.23
2018-06-22T22:15:21.829Z,12.21
2018-06-22T22:17:51.039Z,12.29
2018-06-22T22:20:19.954Z,12.26
2018-06-22T22:22:49.062Z,12.26
2018-06-22T22:25:17.988Z,12.15
2018-06-22T22:27:46.893Z,12.17
2018-06-22T22:30:16.202Z,12.13
2018-06-22T22:32:45.170Z,12.18
2018-06-22T22:35:15.510Z,12.19
2018-06-22T22:37:44.472Z,12.17
2018-06-22T22:40:13.496Z,12.02
2018-06-22T22:42:42.887Z,12.05
2018-06-22T22:45:11.815Z,12.06
2018-06-22T22:47:42.389Z,12.01
2018-06-22T22:50:11.407Z,12.00
2018-06-22T22:52:40.788Z,11.96
2018-06-22T22:55:09.851Z,11.99
2018-06-22T22:57:38.740Z,11.92
2018-06-22T23:00:20.443Z,11.93
2018-06-22T23:03:00.227Z,11.97
2018-06-22T23:05:29.573Z,11.97
2018-06-22T23:08:00.081Z,11.95
2018-06-22T23:10:29.080Z,11.86
2018-06-22T23:12:58.073Z,11.89
2018-06-22T23:15:27.029Z,11.90
2018-06-22T23:17:55.905Z,11.97
2018-06-22T23:20:24.881Z,11.97
2018-06-22T23:23:05.359Z,12.00
2018-06-22T23:25:34.409Z,11.95
2018-06-22T23:28:03.356Z,11.94
2018-06-22T23:30:32.326Z,11.89
2018-06-22T23:33:01.225Z,11.86
2018-06-22T23:35:30.140Z,11.87
2018-06-22T23:37:59.089Z,11.84
2018-06-22T23:40:28.010Z,11.76
2018-06-22T23:42:56.986Z,11.81
2018-06-22T23:45:25.902Z,11.78
2018-06-22T23:47:54.864Z,11.78
2018-06-22T23:50:23.794Z,11.72
2018-06-22T23:52:52.749Z,11.71
2018-06-22T23:55:21.647Z,11.59
2018-06-22T23:57:50.549Z,11.63
